createdAt,value
2023-04-01T04:56:22.440Z,96291.94
2023-04-01T04:58:25.321Z,96296.28
2023-04-01T05:00:28.122Z,96294.13
2023-04-01T05:02:31.625Z,96277.22
2023-04-01T05:04:37.842Z,96283.22
2023-04-01T05:06:40.884Z,96298.84
2023-04-01T05:08:43.962Z,96285.91
2023-04-01T05:10:46.863Z,96292.00
2023-04-01T05:12:51.161Z,96295.22
2023-04-01T05:14:53.921Z,96305.25
2023-04-01T05:16:56.878Z,96299.50
2023-04-01T05:18:59.842Z,96293.63
2023-04-01T05:21:02.611Z,96290.81
2023-04-01T05:23:08.771Z,96295.66
2023-04-01T05:25:11.999Z,96302.97
2023-04-01T05:27:14.948Z,96298.47
2023-04-01T05:29:19.220Z,96307.03
2023-04-01T05:31:22.131Z,96307.19
2023-04-01T05:33:24.969Z,96310.66
2023-04-01T05:35:28.085Z,96305.56
2023-04-01T05:37:30.903Z,96310.44
2023-04-01T05:39:33.705Z,96311.63
2023-04-01T05:41:37.313Z,96307.97
2023-04-01T05:43:40.744Z,96302.81
2023-04-01T05:45:44.955Z,96303.41
2023-04-01T05:47:47.805Z,96304.81
2023-04-01T05:49:50.682Z,96306.22
2023-04-01T05:51:53.875Z,96296.44
2023-04-01T05:53:56.740Z,96297.03
2023-04-01T05:56:03.808Z,96291.50
2023-04-01T05:58:06.710Z,96287.81
2023-04-01T06:00:10.316Z,96298.19
2023-04-01T06:02:14.759Z,96297.97
2023-04-01T06:04:19.125Z,96303.28
2023-04-01T06:06:26.648Z,96300.41
2023-04-01T06:08:34.049Z,96299.59
2023-04-01T06:10:50.468Z,96310.44
2023-04-01T06:13:02.914Z,96314.47
2023-04-01T06:15:19.892Z,96306.34
2023-04-01T06:17:32.290Z,96299.19
2023-04-01T06:19:42.282Z,96300.81
2023-04-01T06:22:04.531Z,96298.75
2023-04-01T06:24:24.991Z,96300.22
2023-04-01T06:26:37.678Z,96294.47
2023-04-01T06:29:15.381Z,96291.44
2023-04-01T06:31:35.545Z,96306.34
2023-04-01T06:33:53.784Z,96308.53
2023-04-01T06:36:13.438Z,96320.19
2023-04-01T06:38:48.588Z,96322.94
2023-04-01T06:41:29.335Z,96316.28
2023-04-01T06:43:48.114Z,96317.31
2023-04-01T06:45:58.137Z,96322.84
2023-04-01T06:48:17.095Z,96330.56
2023-04-01T06:50:28.725Z,96332.81
2023-04-01T06:52:43.284Z,96334.47
2023-04-01T06:54:50.782Z,96334.03
2023-04-01T06:57:00.109Z,96328.50
2023-04-01T06:59:07.495Z,96331.16
2023-04-01T07:01:16.302Z,96334.63
2023-04-01T07:03:23.771Z,96338.47
2023-04-01T07:05:32.993Z,96338.84
2023-04-01T07:07:40.512Z,96338.06
2023-04-01T07:09:50.273Z,96336.56
2023-04-01T07:11:55.915Z,96346.16
2023-04-01T07:14:03.517Z,96342.84
2023-04-01T07:16:15.022Z,96345.66
2023-04-01T07:18:21.785Z,96348.53
2023-04-01T07:20:29.102Z,96347.50
2023-04-01T07:22:36.180Z,96350.16
2023-04-01T07:24:43.044Z,96360.34
2023-04-01T07:26:45.818Z,96362.97
2023-04-01T07:28:48.687Z,96367.91
2023-04-01T07:31:01.768Z,96364.88
2023-04-01T07:33:11.203Z,96361.63
2023-04-01T07:35:25.550Z,96364.72
2023-04-01T07:37:40.411Z,96367.81
2023-04-01T07:39:54.085Z,96371.91
2023-04-01T07:42:04.240Z,96365.78
2023-04-01T07:44:16.727Z,96361.91
2023-04-01T07:46:41.622Z,96370.47
2023-04-01T07:48:55.230Z,96372.69
2023-04-01T07:51:03.745Z,96366.94
2023-04-01T07:53:23.450Z,96373.44
2023-04-01T07:55:32.721Z,96368.34
2023-04-01T07:57:44.321Z,96375.47
2023-04-01T08:00:00.930Z,96364.88
2023-04-01T08:02:12.805Z,96359.38
2023-04-01T08:04:29.035Z,96358.56
2023-04-01T08:06:37.402Z,96366.06
2023-04-01T08:08:52.262Z,96368.88
2023-04-01T08:10:59.512Z,96365.38
2023-04-01T08:13:11.907Z,96364.78
2023-04-01T08:15:23.031Z,96368.25
2023-04-01T08:17:34.338Z,96370.22
2023-04-01T08:19:53.244Z,96364.88
2023-04-01T08:22:00.498Z,96365.25
2023-04-01T08:24:12.663Z,96367.69
2023-04-01T08:26:25.464Z,96364.81
2023-04-01T08:28:34.323Z,96370.28
2023-04-01T08:30:43.267Z,96367.47
2023-04-01T08:32:53.092Z,96357.66
2023-04-01T08:35:05.404Z,96364.56
2023-04-01T08:37:13.161Z,96373.97
2023-04-01T08:39:20.690Z,96380.22
2023-04-01T08:41:39.781Z,96382.06
2023-04-01T08:44:18.158Z,96387.47
2023-04-01T08:46:59.085Z,96387.88
2023-04-01T08:49:29.452Z,96383.22
2023-04-01T08:52:10.700Z,96378.06
2023-04-01T08:54:36.182Z,96382.88
2023-04-01T08:56:45.186Z,96376.75
2023-04-01T08:59:07.620Z,96382.25
2023-04-01T09:01:20.267Z,96372.81
2023-04-01T09:03:40.646Z,96372.97
2023-04-01T09:06:27.833Z,96363.56
2023-04-01T09:08:40.640Z,96373.94
2023-04-01T09:11:07.217Z,96371.06
2023-04-01T09:13:34.979Z,96360.81
2023-04-01T09:15:55.543Z,96368.13
2023-04-01T09:18:29.137Z,96371.69
2023-04-01T09:20:48.008Z,96373.00
2023-04-01T09:23:12.677Z,96378.09
2023-04-01T09:25:41.369Z,96379.84
2023-04-01T09:27:56.022Z,96387.81
2023-04-01T09:30:37.431Z,96376.16
2023-04-01T09:33:00.586Z,96376.38
2023-04-01T09:35:22.286Z,96375.94
2023-04-01T09:37:36.944Z,96378.38
2023-04-01T09:39:49.524Z,96392.09
2023-04-01T09:42:07.077Z,96382.81
2023-04-01T09:44:19.179Z,96381.41
2023-04-01T09:46:29.364Z,96382.06
2023-04-01T09:49:07.510Z,96384.16
2023-04-01T09:51:24.477Z,96372.31
2023-04-01T09:53:44.535Z,96374.16
2023-04-01T09:56:35.738Z,96371.50
2023-04-01T09:59:13.881Z,96372.25
2023-04-01T10:01:47.786Z,96372.78
2023-04-01T10:04:20.818Z,96384.81
2023-04-01T10:07:01.144Z,96378.91
2023-04-01T10:09:32.850Z,96373.81
2023-04-01T10:12:09.232Z,96375.78
2023-04-01T10:14:45.020Z,96366.34
2023-04-01T10:17:22.497Z,96360.81
2023-04-01T10:19:53.302Z,96354.25
2023-04-01T10:22:26.467Z,96355.56
2023-04-01T10:25:06.437Z,96348.09
2023-04-01T10:27:32.200Z,96358.06
2023-04-01T10:30:13.819Z,96350.66
2023-04-01T10:32:42.389Z,96344.22
2023-04-01T10:35:23.458Z,96336.59
2023-04-01T10:37:53.844Z,96330.59
2023-04-01T10:40:29.168Z,96330.88
2023-04-01T10:43:13.150Z,96331.34
2023-04-01T10:45:49.986Z,96325.00
2023-04-01T10:48:16.751Z,96324.66
2023-04-01T10:50:27.310Z,96316.22
2023-04-01T10:53:07.176Z,96319.22
2023-04-01T10:55:40.967Z,96313.09
2023-04-01T10:58:16.229Z,96308.22
2023-04-01T11:00:47.248Z,96310.09
2023-04-01T11:03:26.928Z,96310.91
2023-04-01T11:06:06.522Z,96306.50
2023-04-01T11:08:59.405Z,96307.34
2023-04-01T11:11:58.618Z,96334.34
2023-04-01T11:14:45.377Z,96346.44
2023-04-01T11:17:13.323Z,96358.28
2023-04-01T11:19:45.835Z,96360.50
2023-04-01T11:21:58.094Z,96370.72
2023-04-01T11:24:22.885Z,96364.13
2023-04-01T11:26:36.147Z,96355.44
2023-04-01T11:29:03.001Z,96346.31
2023-04-01T11:31:21.096Z,96335.25
2023-04-01T11:33:30.669Z,96332.06
2023-04-01T11:35:57.639Z,96335.38
2023-04-01T11:38:12.817Z,96323.41
2023-04-01T11:40:26.474Z,96322.41
2023-04-01T11:42:42.411Z,96326.00
2023-04-01T11:44:55.529Z,96319.88
2023-04-01T11:47:19.870Z,96306.28
2023-04-01T11:49:44.378Z,96311.53
2023-04-01T11:52:06.798Z,96305.16
2023-04-01T11:54:26.304Z,96301.81
2023-04-01T11:56:53.335Z,96291.69
2023-04-01T11:59:26.294Z,96302.66
2023-04-01T12:01:52.077Z,96294.44
2023-04-01T12:04:28.198Z,96289.03
2023-04-01T12:06:40.310Z,96284.88
2023-04-01T12:08:55.652Z,96279.91
2023-04-01T12:11:06.648Z,96274.00
2023-04-01T12:13:21.479Z,96270.09
2023-04-01T12:15:32.281Z,96275.06
2023-04-01T12:17:43.417Z,96272.97
2023-04-01T12:19:53.731Z,96272.53
2023-04-01T12:22:12.573Z,96264.69
2023-04-01T12:24:42.388Z,96259.94
2023-04-01T12:26:58.679Z,96257.88
2023-04-01T12:29:09.182Z,96250.94
2023-04-01T12:31:30.072Z,96251.53
2023-04-01T12:33:54.684Z,96248.97
2023-04-01T12:36:09.632Z,96250.34
2023-04-01T12:38:28.554Z,96250.94
2023-04-01T12:41:05.036Z,96250.34
2023-04-01T12:43:40.974Z,96238.31
2023-04-01T12:45:51.945Z,96233.22
2023-04-01T12:48:36.585Z,96236.09
2023-04-01T12:51:17.995Z,96226.59
2023-04-01T12:53:40.585Z,96229.38
2023-04-01T12:55:45.361Z,96227.97
2023-04-01T12:58:09.417Z,96227.88
2023-04-01T13:00:31.728Z,96216.91
2023-04-01T13:02:47.300Z,96219.56
2023-04-01T13:05:16.465Z,96221.66
2023-04-01T13:07:47.706Z,96217.47
2023-04-01T13:09:59.533Z,96216.75
2023-04-01T13:12:20.326Z,96215.50
2023-04-01T13:14:46.800Z,96214.56
2023-04-01T13:16:59.408Z,96212.84
2023-04-01T13:19:11.559Z,96216.44
2023-04-01T13:21:21.350Z,96210.88
2023-04-01T13:23:39.559Z,96206.50
2023-04-01T13:25:52.573Z,96202.06
2023-04-01T13:28:08.795Z,96202.06
2023-04-01T13:30:26.747Z,96195.81
2023-04-01T13:32:43.639Z,96193.81
2023-04-01T13:35:05.769Z,96189.88
2023-04-01T13:37:22.973Z,96181.66
2023-04-01T13:39:59.017Z,96180.25
2023-04-01T13:42:16.094Z,96177.72
2023-04-01T13:44:25.502Z,96173.19
2023-04-01T13:46:44.228Z,96170.53
2023-04-01T13:49:11.437Z,96171.59
2023-04-01T13:52:02.101Z,96171.81
2023-04-01T13:54:46.284Z,96163.34
2023-04-01T13:56:59.733Z,96162.06
2023-04-01T13:59:21.625Z,96158.91
2023-04-01T14:01:34.601Z,96162.97
2023-04-01T14:04:01.426Z,96157.88
2023-04-01T14:06:19.469Z,96162.63
2023-04-01T14:08:35.255Z,96158.34
2023-04-01T14:10:44.762Z,96160.44
2023-04-01T14:12:58.409Z,96156.41
2023-04-01T14:15:25.254Z,96156.09
2023-04-01T14:17:47.278Z,96153.00
2023-04-01T14:20:15.508Z,96160.03
2023-04-01T14:22:25.780Z,96156.13
2023-04-01T14:24:50.159Z,96162.41
2023-04-01T14:27:39.514Z,96160.81
2023-04-01T14:29:56.195Z,96162.19
2023-04-01T14:32:08.759Z,96154.53
2023-04-01T14:34:23.781Z,96155.56
2023-04-01T14:36:54.060Z,96147.25
2023-04-01T14:39:11.632Z,96150.72
2023-04-01T14:41:23.214Z,96136.13
2023-04-01T14:43:49.030Z,96146.78
2023-04-01T14:46:10.901Z,96145.16
2023-04-01T14:48:25.353Z,96150.00
2023-04-01T14:50:32.203Z,96150.47
2023-04-01T14:52:38.202Z,96155.59
2023-04-01T14:54:45.927Z,96160.38
2023-04-01T14:56:51.457Z,96170.13
2023-04-01T14:58:59.883Z,96172.41
2023-04-01T15:01:16.170Z,96165.50
2023-04-01T15:03:26.243Z,96168.69
2023-04-01T15:05:40.479Z,96160.47
2023-04-01T15:08:02.891Z,96168.47
2023-04-01T15:10:20.646Z,96164.19
2023-04-01T15:12:31.572Z,96165.13
2023-04-01T15:14:49.107Z,96167.22
2023-04-01T15:17:02.549Z,96166.16
2023-04-01T15:19:17.130Z,96164.09
2023-04-01T15:21:46.720Z,96159.91
2023-04-01T15:23:58.234Z,96160.63
2023-04-01T15:26:19.646Z,96154.81
2023-04-01T15:28:31.924Z,96149.59
2023-04-01T15:30:39.012Z,96157.38
2023-04-01T15:32:52.657Z,96154.72
2023-04-01T15:35:02.363Z,96152.75
2023-04-01T15:37:17.771Z,96147.56
2023-04-01T15:39:28.323Z,96145.69
2023-04-01T15:41:43.791Z,96144.88
2023-04-01T15:43:51.550Z,96136.00
2023-04-01T15:46:11.386Z,96140.63
2023-04-01T15:48:29.311Z,96148.13
2023-04-01T15:50:49.605Z,96148.94
2023-04-01T15:53:04.650Z,96136.94
2023-04-01T15:55:27.189Z,96147.19
2023-04-01T15:57:40.515Z,96153.09
2023-04-01T16:00:22.895Z,96149.19
2023-04-01T16:02:35.039Z,96144.19
2023-04-01T16:04:50.351Z,96142.81
2023-04-01T16:07:11.681Z,96144.91
2023-04-01T16:09:39.190Z,96140.03
2023-04-01T16:11:55.724Z,96140.41
2023-04-01T16:14:13.282Z,96137.13
2023-04-01T16:16:28.046Z,96151.03
2023-04-01T16:19:05.663Z,96147.91
2023-04-01T16:21:15.575Z,96148.47
2023-04-01T16:23:25.156Z,96139.13
2023-04-01T16:25:36.029Z,96146.84
2023-04-01T16:27:46.418Z,96150.56
2023-04-01T16:29:55.335Z,96158.75
2023-04-01T16:32:07.260Z,96153.69
2023-04-01T16:34:18.257Z,96146.97
2023-04-01T16:36:31.313Z,96146.16
2023-04-01T16:38:46.727Z,96155.16
2023-04-01T16:41:03.798Z,96157.25
2023-04-01T16:43:22.297Z,96150.31
2023-04-01T16:45:37.529Z,96154.25
2023-04-01T16:47:48.915Z,96151.22
2023-04-01T16:49:58.874Z,96147.19
2023-04-01T16:52:16.642Z,96152.75
2023-04-01T16:54:30.326Z,96160.38
2023-04-01T16:56:43.177Z,96160.38
2023-04-01T16:59:06.049Z,96164.63
2023-04-01T17:01:16.952Z,96161.19
2023-04-01T17:03:26.250Z,96162.22
2023-04-01T17:05:42.722Z,96159.56
2023-04-01T17:07:51.298Z,96163.03
2023-04-01T17:10:21.435Z,96157.72
2023-04-01T17:12:30.223Z,96163.25
2023-04-01T17:14:42.673Z,96169.25
2023-04-01T17:17:03.439Z,96180.00
2023-04-01T17:19:27.048Z,96181.47
2023-04-01T17:21:52.829Z,96184.00
2023-04-01T17:24:12.463Z,96190.22
2023-04-01T17:26:28.489Z,96185.59
2023-04-01T17:28:44.160Z,96180.59
2023-04-01T17:30:57.919Z,96187.41
2023-04-01T17:33:17.364Z,96183.94
2023-04-01T17:35:26.588Z,96193.75
2023-04-01T17:37:40.250Z,96194.19
2023-04-01T17:40:02.698Z,96195.34
2023-04-01T17:42:11.935Z,96196.59
2023-04-01T17:44:30.627Z,96207.66
2023-04-01T17:46:58.469Z,96211.22
2023-04-01T17:49:09.750Z,96219.47
2023-04-01T17:51:31.032Z,96223.59
2023-04-01T17:53:42.277Z,96233.00
2023-04-01T17:56:00.018Z,96239.59
2023-04-01T17:58:10.108Z,96236.34
2023-04-01T18:00:25.578Z,96239.00
2023-04-01T18:02:40.878Z,96249.38
2023-04-01T18:05:07.062Z,96244.53
2023-04-01T18:07:24.935Z,96249.47
2023-04-01T18:09:38.829Z,96251.53
2023-04-01T18:11:53.576Z,96250.28
2023-04-01T18:16:55.391Z,96252.13
2023-04-01T18:19:07.876Z,96248.28
2023-04-01T18:21:21.069Z,96258.09
2023-04-01T18:23:32.345Z,96258.91
2023-04-01T18:25:39.151Z,96271.94
2023-04-01T18:27:45.485Z,96270.09
2023-04-01T18:29:53.359Z,96271.94
2023-04-01T18:32:10.127Z,96271.13
2023-04-01T18:34:22.642Z,96269.28
2023-04-01T18:36:36.404Z,96275.16
2023-04-01T18:38:43.638Z,96285.38
2023-04-01T18:40:53.881Z,96279.47
2023-04-01T18:43:07.466Z,96286.81
2023-04-01T18:45:23.352Z,96293.97
2023-04-01T18:47:37.388Z,96295.22
2023-04-01T18:49:45.993Z,96298.47
2023-04-01T18:51:54.902Z,96303.34
2023-04-01T18:54:01.271Z,96300.09
2023-04-01T18:56:07.428Z,96301.78
2023-04-01T18:58:26.493Z,96307.75
2023-04-01T19:00:36.365Z,96321.22
2023-04-01T19:02:45.389Z,96309.81
2023-04-01T19:04:58.194Z,96315.69
2023-04-01T19:07:04.016Z,96310.41
2023-04-01T19:09:19.435Z,96313.88
2023-04-01T19:11:35.458Z,96312.03
2023-04-01T19:13:47.638Z,96324.63
2023-04-01T19:16:01.251Z,96327.66
2023-04-01T19:18:33.020Z,96337.22
2023-04-01T19:20:43.531Z,96333.41
2023-04-01T19:23:04.938Z,96345.63
2023-04-01T19:25:22.158Z,96337.22
2023-04-01T19:27:33.726Z,96337.22
2023-04-01T19:29:51.224Z,96342.53
2023-04-01T19:32:06.484Z,96340.78
2023-04-01T19:34:24.581Z,96341.50
2023-04-01T19:36:34.645Z,96341.53
2023-04-01T19:38:41.966Z,96349.56
2023-04-01T19:40:57.516Z,96347.41
2023-04-01T19:43:07.580Z,96351.50
2023-04-01T19:45:28.464Z,96341.56
2023-04-01T19:47:47.618Z,96349.13
2023-04-01T19:50:03.280Z,96345.50
2023-04-01T19:52:14.044Z,96350.41
2023-04-01T19:54:30.475Z,96354.91
2023-04-01T19:56:41.559Z,96355.72
2023-04-01T19:58:50.004Z,96348.38
2023-04-01T20:00:55.912Z,96361.41
2023-04-01T20:03:05.819Z,96364.63
2023-04-01T20:05:29.112Z,96357.72
2023-04-01T20:07:39.887Z,96365.44
2023-04-01T20:09:54.480Z,96371.16
2023-04-01T20:12:05.050Z,96368.50
2023-04-01T20:14:21.066Z,96373.22
2023-04-01T20:16:24.005Z,96368.50
2023-04-01T20:18:36.194Z,96367.47
2023-04-01T20:20:40.057Z,96367.69
2023-04-01T20:23:03.964Z,96373.63
2023-04-01T20:25:17.235Z,96365.88
2023-04-01T20:27:24.994Z,96374.44
2023-04-01T20:29:39.979Z,96372.59
2023-04-01T20:31:46.268Z,96379.53
2023-04-01T20:34:13.720Z,96376.91
2023-04-01T20:36:23.465Z,96388.50
2023-04-01T20:39:03.279Z,96391.16
2023-04-01T20:41:18.274Z,96393.00
2023-04-01T20:43:38.301Z,96394.84
2023-04-01T20:45:49.124Z,96380.97
2023-04-01T20:48:13.484Z,96390.56
2023-04-01T20:50:31.626Z,96387.91
2023-04-01T20:52:43.112Z,96391.59
2023-04-01T20:55:38.106Z,96391.22
2023-04-01T20:57:51.738Z,96384.69
2023-04-01T21:00:11.412Z,96387.19
2023-04-01T21:02:32.582Z,96389.84
2023-04-01T21:04:48.145Z,96395.97
2023-04-01T21:07:13.280Z,96388.88
2023-04-01T21:09:31.751Z,96389.50
2023-04-01T21:11:43.778Z,96393.97
2023-04-01T21:14:02.938Z,96389.28
2023-04-01T21:16:18.293Z,96394.56
2023-04-01T21:18:37.381Z,96395.00
2023-04-01T21:20:57.860Z,96402.81
2023-04-01T21:23:13.209Z,96396.50
2023-04-01T21:25:38.023Z,96400.75
2023-04-01T21:27:52.015Z,96399.34
2023-04-01T21:30:05.742Z,96395.69
2023-04-01T21:32:31.238Z,96398.75
2023-04-01T21:34:45.724Z,96404.44
2023-04-01T21:37:03.003Z,96394.28
2023-04-01T21:39:25.089Z,96404.00
2023-04-01T21:41:53.389Z,96404.63
2023-04-01T21:44:21.176Z,96401.56
2023-04-01T21:47:03.479Z,96408.03
2023-04-01T21:49:27.835Z,96403.75
2023-04-01T21:52:06.921Z,96398.25
2023-04-01T21:54:41.631Z,96403.13
2023-04-01T21:57:24.618Z,96399.88
2023-04-01T22:00:06.768Z,96405.97
2023-04-01T22:02:40.570Z,96407.81
2023-04-01T22:05:00.043Z,96412.91
2023-04-01T22:07:11.213Z,96412.72
2023-04-01T22:09:23.314Z,96411.69
2023-04-01T22:11:40.308Z,96415.16
2023-04-01T22:13:50.338Z,96423.50
2023-04-01T22:16:08.273Z,96423.13
2023-04-01T22:18:23.128Z,96423.56
2023-04-01T22:20:32.425Z,96420.94
2023-04-01T22:22:51.510Z,96426.00
2023-04-01T22:25:07.495Z,96419.50
2023-04-01T22:27:19.469Z,96420.31
2023-04-01T22:29:28.572Z,96416.63
2023-04-01T22:31:38.686Z,96411.56
2023-04-01T22:33:54.058Z,96409.72
2023-04-01T22:36:05.081Z,96412.56
2023-04-01T22:38:20.539Z,96416.63
2023-04-01T22:40:27.747Z,96417.66
2023-04-01T22:42:44.558Z,96414.59
2023-04-01T22:44:59.382Z,96418.63
2023-04-01T22:47:11.800Z,96412.09
2023-04-01T22:49:23.305Z,96408.22
2023-04-01T22:51:32.628Z,96412.50
2023-04-01T22:53:51.759Z,96415.38
2023-04-01T22:55:59.898Z,96416.19
2023-04-01T22:58:06.939Z,96412.09
2023-04-01T23:00:17.090Z,96416.00
2023-04-01T23:02:25.911Z,96412.91
2023-04-01T23:04:33.919Z,96414.75
2023-04-01T23:06:42.323Z,96420.47
2023-04-01T23:09:04.113Z,96423.56
2023-04-01T23:11:10.030Z,96420.91
2023-04-01T23:13:18.736Z,96426.44
2023-04-01T23:15:22.303Z,96429.28
2023-04-01T23:17:36.633Z,96430.09
2023-04-01T23:19:49.358Z,96428.66
2023-04-01T23:22:01.714Z,96424.38
2023-04-01T23:24:14.452Z,96430.34
2023-04-01T23:26:23.801Z,96426.88
2023-04-01T23:28:48.677Z,96424.84
2023-04-01T23:30:52.591Z,96428.72
2023-04-01T23:32:55.725Z,96426.06
2023-04-01T23:35:02.034Z,96429.53
2023-04-01T23:37:07.250Z,96431.81
2023-04-01T23:39:23.354Z,96427.53
2023-04-01T23:41:30.026Z,96425.31
2023-04-01T23:43:36.159Z,96435.28
2023-04-01T23:45:39.160Z,96432.63
2023-04-01T23:47:43.900Z,96438.56
2023-04-01T23:49:50.381Z,96438.75
2023-04-01T23:52:00.003Z,96436.31
2023-04-01T23:54:05.966Z,96437.34
2023-04-01T23:56:08.986Z,96439.38
2023-04-01T23:58:20.493Z,96447.75
